sensor_id;sensor_type;location;lat;lon;timestamp;pressure;altitude;pressure_sealevel;temperature;humidity
60055;BME280;45930;53.514;55.904;2023-04-04T00:00:15;49145.84;;;-149.77;60.29
60055;BME280;45930;53.514;55.904;2023-04-04T00:01:16;49167.63;;;-149.77;60.63
60055;BME280;45930;53.514;55.904;2023-04-04T00:02:17;49197.34;;;-149.77;60.90
60055;BME280;45930;53.514;55.904;2023-04-04T00:03:18;49167.63;;;-149.77;61.32
60055;BME280;45930;53.514;55.904;2023-04-04T00:04:18;49169.59;;;-149.77;61.59
60055;BME280;45930;53.514;55.904;2023-04-04T00:05:19;49163.66;;;-149.77;61.23
60055;BME280;45930;53.514;55.904;2023-04-04T00:06:20;49179.50;;;-149.77;61.63
60055;BME280;45930;53.514;55.904;2023-04-04T00:07:21;49145.84;;;-149.77;62.06
60055;BME280;45930;53.514;55.904;2023-04-04T00:08:21;49151.78;;;-149.77;62.22
60055;BME280;45930;53.514;55.904;2023-04-04T00:09:22;49167.63;;;-149.77;61.74
60055;BME280;45930;53.514;55.904;2023-04-04T00:10:23;49175.53;;;-149.77;61.42
60055;BME280;45930;53.514;55.904;2023-04-04T00:11:25;49165.63;;;-149.77;62.02
60055;BME280;45930;53.514;55.904;2023-04-04T00:12:26;49189.41;;;-149.77;62.51
60055;BME280;45930;53.514;55.904;2023-04-04T00:13:27;49169.59;;;-149.77;62.42
60055;BME280;45930;53.514;55.904;2023-04-04T00:14:28;49181.50;;;-149.77;62.46
60055;BME280;45930;53.514;55.904;2023-04-04T00:15:29;49199.31;;;-149.77;62.96
60055;BME280;45930;53.514;55.904;2023-04-04T00:16:30;49185.44;;;-149.77;63.42
60055;BME280;45930;53.514;55.904;2023-04-04T00:17:30;49167.63;;;-149.77;62.23
60055;BME280;45930;53.514;55.904;2023-04-04T00:18:31;49175.53;;;-149.77;61.40
60055;BME280;45930;53.514;55.904;2023-04-04T00:19:32;49185.44;;;-149.77;61.49
60055;BME280;45930;53.514;55.904;2023-04-04T00:20:33;49205.25;;;-149.77;61.04
60055;BME280;45930;53.514;55.904;2023-04-04T00:21:34;49183.47;;;-149.77;61.12
60055;BME280;45930;53.514;55.904;2023-04-04T00:22:35;49153.75;;;-149.77;61.06
60055;BME280;45930;53.514;55.904;2023-04-04T00:23:36;49169.59;;;-149.77;60.92
60055;BME280;45930;53.514;55.904;2023-04-04T00:24:36;49181.50;;;-149.77;61.00
60055;BME280;45930;53.514;55.904;2023-04-04T00:25:40;49207.25;;;-149.77;61.09
60055;BME280;45930;53.514;55.904;2023-04-04T00:26:41;49191.38;;;-149.77;61.33
60055;BME280;45930;53.514;55.904;2023-04-04T00:27:42;49203.28;;;-149.77;61.47
60055;BME280;45930;53.514;55.904;2023-04-04T00:28:43;49207.25;;;-149.77;61.76
60055;BME280;45930;53.514;55.904;2023-04-04T00:29:43;49199.31;;;-149.77;61.84
60055;BME280;45930;53.514;55.904;2023-04-04T00:30:45;49163.66;;;-149.77;62.25
60055;BME280;45930;53.514;55.904;2023-04-04T00:31:49;49167.63;;;-149.77;62.82
60055;BME280;45930;53.514;55.904;2023-04-04T00:32:49;49209.22;;;-149.77;62.87
60055;BME280;45930;53.514;55.904;2023-04-04T00:33:51;49199.31;;;-149.77;63.08
60055;BME280;45930;53.514;55.904;2023-04-04T00:34:52;49167.63;;;-149.77;63.53
60055;BME280;45930;53.514;55.904;2023-04-04T00:35:53;49177.53;;;-149.77;64.00
60055;BME280;45930;53.514;55.904;2023-04-04T00:36:54;49169.59;;;-149.77;64.88
60055;BME280;45930;53.514;55.904;2023-04-04T00:37:55;49181.50;;;-149.77;64.69
60055;BME280;45930;53.514;55.904;2023-04-04T00:38:55;49189.41;;;-149.77;65.22
60055;BME280;45930;53.514;55.904;2023-04-04T00:39:56;49195.34;;;-149.77;64.74
60055;BME280;45930;53.514;55.904;2023-04-04T00:40:57;49219.13;;;-149.77;64.19
60055;BME280;45930;53.514;55.904;2023-04-04T00:41:58;49189.41;;;-149.77;64.34
60055;BME280;45930;53.514;55.904;2023-04-04T00:42:58;49181.50;;;-149.77;64.51
60055;BME280;45930;53.514;55.904;2023-04-04T00:44:00;49191.38;;;-149.77;64.26
60055;BME280;45930;53.514;55.904;2023-04-04T00:45:01;49203.28;;;-149.77;64.07
60055;BME280;45930;53.514;55.904;2023-04-04T00:46:02;49199.31;;;-149.77;63.66
60055;BME280;45930;53.514;55.904;2023-04-04T00:47:03;49197.34;;;-149.77;62.85
60055;BME280;45930;53.514;55.904;2023-04-04T00:48:05;49187.44;;;-149.77;63.18
60055;BME280;45930;53.514;55.904;2023-04-04T00:49:06;49191.38;;;-149.77;63.18
60055;BME280;45930;53.514;55.904;2023-04-04T00:50:07;49179.50;;;-149.77;63.14
60055;BME280;45930;53.514;55.904;2023-04-04T00:51:08;49165.63;;;-149.77;63.06
60055;BME280;45930;53.514;55.904;2023-04-04T00:52:08;49167.63;;;-149.77;62.99
60055;BME280;45930;53.514;55.904;2023-04-04T00:53:10;49191.38;;;-149.77;63.09
60055;BME280;45930;53.514;55.904;2023-04-04T00:54:11;49169.59;;;-149.77;63.21
60055;BME280;45930;53.514;55.904;2023-04-04T00:55:12;49173.56;;;-149.77;63.50
60055;BME280;45930;53.514;55.904;2023-04-04T00:56:13;49163.66;;;-149.77;64.00
60055;BME280;45930;53.514;55.904;2023-04-04T00:57:15;49193.38;;;-149.77;64.44
60055;BME280;45930;53.514;55.904;2023-04-04T00:58:16;49181.50;;;-149.77;65.74
60055;BME280;45930;53.514;55.904;2023-04-04T00:59:17;49171.59;;;-149.77;66.26
60055;BME280;45930;53.514;55.904;2023-04-04T01:00:18;49187.44;;;-149.77;66.79
60055;BME280;45930;53.514;55.904;2023-04-04T01:01:18;49181.50;;;-149.77;67.04
60055;BME280;45930;53.514;55.904;2023-04-04T01:02:19;49199.31;;;-149.77;66.94
60055;BME280;45930;53.514;55.904;2023-04-04T01:03:20;49199.31;;;-149.77;66.92
60055;BME280;45930;53.514;55.904;2023-04-04T01:04:21;49171.59;;;-149.77;67.49
60055;BME280;45930;53.514;55.904;2023-04-04T01:05:22;49211.19;;;-149.77;68.32
60055;BME280;45930;53.514;55.904;2023-04-04T01:06:24;49181.50;;;-149.77;67.75
60055;BME280;45930;53.514;55.904;2023-04-04T01:07:26;49175.53;;;-149.77;67.18
60055;BME280;45930;53.514;55.904;2023-04-04T01:08:27;49195.34;;;-149.77;67.60
60055;BME280;45930;53.514;55.904;2023-04-04T01:09:29;49169.59;;;-149.77;66.85
60055;BME280;45930;53.514;55.904;2023-04-04T01:10:31;49179.50;;;-149.77;67.45
60055;BME280;45930;53.514;55.904;2023-04-04T01:11:32;49219.13;;;-149.77;67.65
60055;BME280;45930;53.514;55.904;2023-04-04T01:12:33;49209.22;;;-149.77;68.65
60055;BME280;45930;53.514;55.904;2023-04-04T01:13:35;49185.44;;;-149.77;69.03
60055;BME280;45930;53.514;55.904;2023-04-04T01:14:36;49185.44;;;-149.77;68.92
60055;BME280;45930;53.514;55.904;2023-04-04T01:15:37;49167.63;;;-149.77;68.74
60055;BME280;45930;53.514;55.904;2023-04-04T01:16:38;49183.47;;;-149.77;68.78
60055;BME280;45930;53.514;55.904;2023-04-04T01:17:39;49215.16;;;-149.77;69.20
60055;BME280;45930;53.514;55.904;2023-04-04T01:18:42;49191.38;;;-149.77;68.99
60055;BME280;45930;53.514;55.904;2023-04-04T01:20:02;49179.50;;;-149.77;68.77
60055;BME280;45930;53.514;55.904;2023-04-04T01:21:07;49193.38;;;-149.77;68.34
60055;BME280;45930;53.514;55.904;2023-04-04T01:22:10;49165.63;;;-149.77;68.12
60055;BME280;45930;53.514;55.904;2023-04-04T01:23:12;49163.66;;;-149.77;67.66
60055;BME280;45930;53.514;55.904;2023-04-04T01:24:15;49215.16;;;-149.77;67.45
60055;BME280;45930;53.514;55.904;2023-04-04T01:25:17;49193.38;;;-149.77;67.43
60055;BME280;45930;53.514;55.904;2023-04-04T01:26:21;49181.50;;;-149.77;66.60
60055;BME280;45930;53.514;55.904;2023-04-04T01:27:23;49209.22;;;-149.77;66.28
60055;BME280;45930;53.514;55.904;2023-04-04T01:28:24;49236.94;;;-149.77;65.62
60055;BME280;45930;53.514;55.904;2023-04-04T01:29:25;49199.31;;;-149.77;65.52
60055;BME280;45930;53.514;55.904;2023-04-04T01:30:31;49203.28;;;-149.77;65.44
60055;BME280;45930;53.514;55.904;2023-04-04T01:31:48;49201.28;;;-149.77;65.58
60055;BME280;45930;53.514;55.904;2023-04-04T01:35:34;49197.34;;;-149.77;66.86
60055;BME280;45930;53.514;55.904;2023-04-04T01:40:40;49175.53;;;-149.77;67.91
60055;BME280;45930;53.514;55.904;2023-04-04T01:41:41;49191.38;;;-149.77;68.25
60055;BME280;45930;53.514;55.904;2023-04-04T01:42:47;49201.28;;;-149.77;68.69
60055;BME280;45930;53.514;55.904;2023-04-04T01:43:48;49207.25;;;-149.77;69.15
60055;BME280;45930;53.514;55.904;2023-04-04T01:44:55;49195.34;;;-149.77;69.10
60055;BME280;45930;53.514;55.904;2023-04-04T01:45:58;49231.00;;;-149.77;68.86
60055;BME280;45930;53.514;55.904;2023-04-04T01:46:58;49181.50;;;-149.77;69.01
60055;BME280;45930;53.514;55.904;2023-04-04T01:47:59;49181.50;;;-149.77;69.28
60055;BME280;45930;53.514;55.904;2023-04-04T01:49:00;49157.72;;;-149.77;69.38
60055;BME280;45930;53.514;55.904;2023-04-04T01:50:02;49187.44;;;-149.77;69.57
60055;BME280;45930;53.514;55.904;2023-04-04T01:51:03;49171.59;;;-149.77;69.96
60055;BME280;45930;53.514;55.904;2023-04-04T01:52:04;49173.56;;;-149.77;69.84
60055;BME280;45930;53.514;55.904;2023-04-04T01:53:06;49165.63;;;-149.77;69.92
60055;BME280;45930;53.514;55.904;2023-04-04T01:54:07;49181.50;;;-149.77;69.67
60055;BME280;45930;53.514;55.904;2023-04-04T01:55:08;49177.53;;;-149.77;69.37
60055;BME280;45930;53.514;55.904;2023-04-04T01:56:09;49167.63;;;-149.77;69.38
60055;BME280;45930;53.514;55.904;2023-04-04T01:57:10;49161.69;;;-149.77;69.27
60055;BME280;45930;53.514;55.904;2023-04-04T01:58:11;49175.53;;;-149.77;68.78
60055;BME280;45930;53.514;55.904;2023-04-04T01:59:12;49193.38;;;-149.77;68.49
60055;BME280;45930;53.514;55.904;2023-04-04T02:00:13;49165.63;;;-149.77;68.87
60055;BME280;45930;53.514;55.904;2023-04-04T02:01:15;49179.50;;;-149.77;68.42
60055;BME280;45930;53.514;55.904;2023-04-04T02:02:16;49191.38;;;-149.77;68.50
60055;BME280;45930;53.514;55.904;2023-04-04T02:03:16;49163.66;;;-149.77;68.61
60055;BME280;45930;53.514;55.904;2023-04-04T02:04:17;49151.78;;;-149.77;68.29
60055;BME280;45930;53.514;55.904;2023-04-04T02:05:18;49189.41;;;-149.77;68.58
60055;BME280;45930;53.514;55.904;2023-04-04T02:06:19;49163.66;;;-149.77;69.17
60055;BME280;45930;53.514;55.904;2023-04-04T02:07:19;49191.38;;;-149.77;69.03
60055;BME280;45930;53.514;55.904;2023-04-04T02:08:20;49167.63;;;-149.77;69.37
60055;BME280;45930;53.514;55.904;2023-04-04T02:09:21;49149.78;;;-149.77;69.57
60055;BME280;45930;53.514;55.904;2023-04-04T02:10:22;49187.44;;;-149.77;69.29
60055;BME280;45930;53.514;55.904;2023-04-04T02:11:22;49181.50;;;-149.77;69.67
60055;BME280;45930;53.514;55.904;2023-04-04T02:12:23;49163.66;;;-149.77;69.94
60055;BME280;45930;53.514;55.904;2023-04-04T02:13:24;49187.44;;;-149.77;70.07
60055;BME280;45930;53.514;55.904;2023-04-04T02:14:25;49155.75;;;-149.77;70.68
60055;BME280;45930;53.514;55.904;2023-04-04T02:15:26;49151.78;;;-149.77;70.56
60055;BME280;45930;53.514;55.904;2023-04-04T02:16:27;49189.41;;;-149.77;71.04
60055;BME280;45930;53.514;55.904;2023-04-04T02:17:28;49163.66;;;-149.77;71.09
60055;BME280;45930;53.514;55.904;2023-04-04T02:18:29;49155.75;;;-149.77;71.15
60055;BME280;45930;53.514;55.904;2023-04-04T02:19:30;49143.84;;;-149.77;70.77
60055;BME280;45930;53.514;55.904;2023-04-04T02:20:31;49167.63;;;-149.77;70.66
60055;BME280;45930;53.514;55.904;2023-04-04T02:21:32;49169.59;;;-149.77;70.27
60055;BME280;45930;53.514;55.904;2023-04-04T02:22:33;49167.63;;;-149.77;70.08
60055;BME280;45930;53.514;55.904;2023-04-04T02:23:33;49169.59;;;-149.77;69.46
60055;BME280;45930;53.514;55.904;2023-04-04T02:24:34;49155.75;;;-149.77;69.22
60055;BME280;45930;53.514;55.904;2023-04-04T02:25:35;49171.59;;;-149.77;68.98
60055;BME280;45930;53.514;55.904;2023-04-04T02:26:36;49147.81;;;-149.77;69.29
60055;BME280;45930;53.514;55.904;2023-04-04T02:27:37;49143.84;;;-149.77;68.46
60055;BME280;45930;53.514;55.904;2023-04-04T02:28:38;49173.56;;;-149.77;67.71
60055;BME280;45930;53.514;55.904;2023-04-04T02:29:39;49175.53;;;-149.77;67.80
60055;BME280;45930;53.514;55.904;2023-04-04T02:30:39;49151.78;;;-149.77;68.12
60055;BME280;45930;53.514;55.904;2023-04-04T02:31:40;49167.63;;;-149.77;67.78
60055;BME280;45930;53.514;55.904;2023-04-04T02:32:41;49149.78;;;-149.77;67.57
60055;BME280;45930;53.514;55.904;2023-04-04T02:33:42;49161.69;;;-149.77;67.37
60055;BME280;45930;53.514;55.904;2023-04-04T02:34:43;49153.75;;;-149.77;66.51
60055;BME280;45930;53.514;55.904;2023-04-04T02:35:44;49159.69;;;-149.77;66.43
60055;BME280;45930;53.514;55.904;2023-04-04T02:36:45;49130.00;;;-149.77;66.03
60055;BME280;45930;53.514;55.904;2023-04-04T02:37:46;49173.56;;;-149.77;65.61
60055;BME280;45930;53.514;55.904;2023-04-04T02:38:47;49145.84;;;-149.77;65.33
60055;BME280;45930;53.514;55.904;2023-04-04T02:39:48;49147.81;;;-149.77;65.13
60055;BME280;45930;53.514;55.904;2023-04-04T02:40:48;49128.00;;;-149.77;65.22
60055;BME280;45930;53.514;55.904;2023-04-04T02:41:49;49139.91;;;-149.77;64.83
60055;BME280;45930;53.514;55.904;2023-04-04T02:42:50;49147.81;;;-149.77;64.59
60055;BME280;45930;53.514;55.904;2023-04-04T02:43:51;49153.75;;;-149.77;64.32
60055;BME280;45930;53.514;55.904;2023-04-04T02:44:52;49143.84;;;-149.77;64.26
60055;BME280;45930;53.514;55.904;2023-04-04T02:45:53;49116.13;;;-149.77;63.72
60055;BME280;45930;53.514;55.904;2023-04-04T02:46:53;49131.97;;;-149.77;63.90
60055;BME280;45930;53.514;55.904;2023-04-04T02:47:55;49175.53;;;-149.77;63.60
60055;BME280;45930;53.514;55.904;2023-04-04T02:48:56;49141.88;;;-149.77;63.04
60055;BME280;45930;53.514;55.904;2023-04-04T02:49:56;49116.13;;;-149.77;62.62
60055;BME280;45930;53.514;55.904;2023-04-04T02:50:57;49143.84;;;-149.77;62.03
60055;BME280;45930;53.514;55.904;2023-04-04T02:51:58;49120.09;;;-149.77;61.99
60055;BME280;45930;53.514;55.904;2023-04-04T02:52:59;49130.00;;;-149.77;61.74
60055;BME280;45930;53.514;55.904;2023-04-04T02:54:03;49130.00;;;-149.77;61.73
60055;BME280;45930;53.514;55.904;2023-04-04T02:55:05;49135.94;;;-149.77;61.14
60055;BME280;45930;53.514;55.904;2023-04-04T02:56:06;49163.66;;;-149.77;60.95
60055;BME280;45930;53.514;55.904;2023-04-04T02:57:07;49135.94;;;-149.77;60.59
60055;BME280;45930;53.514;55.904;2023-04-04T02:58:08;49133.94;;;-149.77;59.98
60055;BME280;45930;53.514;55.904;2023-04-04T02:59:08;49133.94;;;-149.77;59.59
60055;BME280;45930;53.514;55.904;2023-04-04T03:00:09;49108.19;;;-149.77;59.42
60055;BME280;45930;53.514;55.904;2023-04-04T03:01:10;49131.97;;;-149.77;59.35
60055;BME280;45930;53.514;55.904;2023-04-04T03:02:11;49114.16;;;-149.77;59.63
60055;BME280;45930;53.514;55.904;2023-04-04T03:03:12;49110.19;;;-149.77;60.01
60055;BME280;45930;53.514;55.904;2023-04-04T03:04:13;49100.28;;;-149.77;59.86
60055;BME280;45930;53.514;55.904;2023-04-04T03:05:14;49110.19;;;-149.77;59.93
60055;BME280;45930;53.514;55.904;2023-04-04T03:06:14;49139.91;;;-149.77;60.10
60055;BME280;45930;53.514;55.904;2023-04-04T03:07:15;49114.16;;;-149.77;59.93
60055;BME280;45930;53.514;55.904;2023-04-04T03:08:16;49102.25;;;-149.77;60.25
60055;BME280;45930;53.514;55.904;2023-04-04T03:09:17;49124.03;;;-149.77;60.33
60055;BME280;45930;53.514;55.904;2023-04-04T03:10:18;49108.19;;;-149.77;60.28
60055;BME280;45930;53.514;55.904;2023-04-04T03:11:18;49116.13;;;-149.77;60.36
60055;BME280;45930;53.514;55.904;2023-04-04T03:12:20;49106.22;;;-149.77;60.18
60055;BME280;45930;53.514;55.904;2023-04-04T03:13:21;49096.31;;;-149.77;59.82
60055;BME280;45930;53.514;55.904;2023-04-04T03:14:22;49126.03;;;-149.77;59.25
60055;BME280;45930;53.514;55.904;2023-04-04T03:15:23;49126.03;;;-149.77;57.61
60055;BME280;45930;53.514;55.904;2023-04-04T03:16:25;49106.22;;;-149.77;56.71
60055;BME280;45930;53.514;55.904;2023-04-04T03:17:26;49110.19;;;-149.77;56.48
60055;BME280;45930;53.514;55.904;2023-04-04T03:18:27;49106.22;;;-149.77;55.88
60055;BME280;45930;53.514;55.904;2023-04-04T03:19:28;49104.25;;;-149.77;54.61
60055;BME280;45930;53.514;55.904;2023-04-04T03:20:29;49090.38;;;-149.77;54.17
60055;BME280;45930;53.514;55.904;2023-04-04T03:21:30;49128.00;;;-149.77;53.62
60055;BME280;45930;53.514;55.904;2023-04-04T03:22:31;49102.25;;;-149.77;52.85
60055;BME280;45930;53.514;55.904;2023-04-04T03:23:32;49084.44;;;-149.77;52.46
60055;BME280;45930;53.514;55.904;2023-04-04T03:24:34;49116.13;;;-149.77;52.15
60055;BME280;45930;53.514;55.904;2023-04-04T03:25:34;49108.19;;;-149.77;51.84
60055;BME280;45930;53.514;55.904;2023-04-04T03:26:35;49108.19;;;-149.77;51.59
60055;BME280;45930;53.514;55.904;2023-04-04T03:27:37;49128.00;;;-149.77;51.45
60055;BME280;45930;53.514;55.904;2023-04-04T03:28:39;49114.16;;;-149.77;51.02
60055;BME280;45930;53.514;55.904;2023-04-04T03:29:40;49130.00;;;-149.77;50.75
60055;BME280;45930;53.514;55.904;2023-04-04T03:30:41;49092.34;;;-149.77;50.36
60055;BME280;45930;53.514;55.904;2023-04-04T03:31:42;49104.25;;;-149.77;50.17
60055;BME280;45930;53.514;55.904;2023-04-04T03:32:42;49094.34;;;-149.77;49.88
60055;BME280;45930;53.514;55.904;2023-04-04T03:33:44;49122.06;;;-149.77;49.91
60055;BME280;45930;53.514;55.904;2023-04-04T03:34:44;49092.34;;;-149.77;49.91
60055;BME280;45930;53.514;55.904;2023-04-04T03:35:46;49108.19;;;-149.77;49.38
60055;BME280;45930;53.514;55.904;2023-04-04T03:36:47;49070.56;;;-149.77;49.55
60055;BME280;45930;53.514;55.904;2023-04-04T03:37:47;49100.28;;;-149.77;49.49
60055;BME280;45930;53.514;55.904;2023-04-04T03:38:48;49088.41;;;-149.77;49.23
60055;BME280;45930;53.514;55.904;2023-04-04T03:39:49;49072.53;;;-149.77;48.92
60055;BME280;45930;53.514;55.904;2023-04-04T03:40:50;49076.50;;;-149.77;48.51
60055;BME280;45930;53.514;55.904;2023-04-04T03:42:00;49102.25;;;-149.77;48.31
60055;BME280;45930;53.514;55.904;2023-04-04T03:43:01;49080.47;;;-149.77;47.67
60055;BME280;45930;53.514;55.904;2023-04-04T03:44:03;49084.44;;;-149.77;47.49
60055;BME280;45930;53.514;55.904;2023-04-04T03:45:04;49088.41;;;-149.77;47.56
60055;BME280;45930;53.514;55.904;2023-04-04T03:46:07;49100.28;;;-149.77;47.51
60055;BME280;45930;53.514;55.904;2023-04-04T03:47:07;49108.19;;;-149.77;47.29
60055;BME280;45930;53.514;55.904;2023-04-04T03:48:09;49094.34;;;-149.77;47.19
60055;BME280;45930;53.514;55.904;2023-04-04T03:49:10;49092.34;;;-149.77;47.13
60055;BME280;45930;53.514;55.904;2023-04-04T03:50:11;49084.44;;;-149.77;46.91
60055;BME280;45930;53.514;55.904;2023-04-04T03:51:21;49060.66;;;-149.77;46.91
60055;BME280;45930;53.514;55.904;2023-04-04T03:52:22;49086.41;;;-149.77;46.71
60055;BME280;45930;53.514;55.904;2023-04-04T03:53:23;49056.69;;;-149.77;46.61
60055;BME280;45930;53.514;55.904;2023-04-04T03:54:27;49078.50;;;-149.77;46.38
60055;BME280;45930;53.514;55.904;2023-04-04T03:55:28;49056.69;;;-149.77;46.29
60055;BME280;45930;53.514;55.904;2023-04-04T03:56:30;49084.44;;;-149.77;45.94
60055;BME280;45930;53.514;55.904;2023-04-04T03:57:32;49112.16;;;-149.77;45.88
60055;BME280;45930;53.514;55.904;2023-04-04T03:58:34;49106.22;;;-149.77;45.56
60055;BME280;45930;53.514;55.904;2023-04-04T03:59:35;49078.50;;;-149.77;45.49
60055;BME280;45930;53.514;55.904;2023-04-04T04:00:36;49078.50;;;-149.77;45.51
60055;BME280;45930;53.514;55.904;2023-04-04T04:01:37;49074.53;;;-149.77;45.56
60055;BME280;45930;53.514;55.904;2023-04-04T04:02:38;49080.47;;;-149.77;45.21
60055;BME280;45930;53.514;55.904;2023-04-04T04:03:39;49078.50;;;-149.77;45.06
60055;BME280;45930;53.514;55.904;2023-04-04T04:04:40;49090.38;;;-149.77;44.95
60055;BME280;45930;53.514;55.904;2023-04-04T04:05:41;49062.66;;;-149.77;44.84
60055;BME280;45930;53.514;55.904;2023-04-04T04:06:41;49088.41;;;-149.77;44.88
60055;BME280;45930;53.514;55.904;2023-04-04T04:07:43;49032.94;;;-149.77;44.78
60055;BME280;45930;53.514;55.904;2023-04-04T04:08:45;49068.59;;;-149.77;44.23
60055;BME280;45930;53.514;55.904;2023-04-04T04:09:46;49060.66;;;-149.77;43.76
60055;BME280;45930;53.514;55.904;2023-04-04T04:10:46;49094.34;;;-149.77;43.20
60055;BME280;45930;53.514;55.904;2023-04-04T04:11:47;49060.66;;;-149.77;43.32
60055;BME280;45930;53.514;55.904;2023-04-04T04:12:48;49060.66;;;-149.77;43.09
60055;BME280;45930;53.514;55.904;2023-04-04T04:13:49;49078.50;;;-149.77;43.11
60055;BME280;45930;53.514;55.904;2023-04-04T04:14:50;49032.94;;;-149.77;43.13
60055;BME280;45930;53.514;55.904;2023-04-04T04:15:53;49064.63;;;-149.77;42.88
60055;BME280;45930;53.514;55.904;2023-04-04T04:16:54;49068.59;;;-149.77;42.65
60055;BME280;45930;53.514;55.904;2023-04-04T04:17:55;49086.41;;;-149.77;42.30
60055;BME280;45930;53.514;55.904;2023-04-04T04:18:56;49050.75;;;-149.77;42.24
60055;BME280;45930;53.514;55.904;2023-04-04T04:19:57;49088.41;;;-149.77;41.75
60055;BME280;45930;53.514;55.904;2023-04-04T04:20:59;49096.31;;;-149.77;41.37
60055;BME280;45930;53.514;55.904;2023-04-04T04:22:01;49066.59;;;-149.77;41.58
60055;BME280;45930;53.514;55.904;2023-04-04T04:23:02;49068.59;;;-149.77;41.48
60055;BME280;45930;53.514;55.904;2023-04-04T04:24:03;49074.53;;;-149.77;41.07
60055;BME280;45930;53.514;55.904;2023-04-04T04:25:04;49066.59;;;-149.77;40.76
60055;BME280;45930;53.514;55.904;2023-04-04T04:26:05;49052.75;;;-149.77;40.98
60055;BME280;45930;53.514;55.904;2023-04-04T04:27:06;49068.59;;;-149.77;40.75
60055;BME280;45930;53.514;55.904;2023-04-04T04:28:07;49023.03;;;-149.77;40.49
60055;BME280;45930;53.514;55.904;2023-04-04T04:29:08;49052.75;;;-149.77;40.51
60055;BME280;45930;53.514;55.904;2023-04-04T04:30:09;49048.78;;;-149.77;40.61
60055;BME280;45930;53.514;55.904;2023-04-04T04:31:09;49078.50;;;-149.77;40.51
60055;BME280;45930;53.514;55.904;2023-04-04T04:32:15;49066.59;;;-149.77;40.51
60055;BME280;45930;53.514;55.904;2023-04-04T04:33:16;49070.56;;;-149.77;40.29
60055;BME280;45930;53.514;55.904;2023-04-04T04:34:17;49046.78;;;-149.77;40.04
60055;BME280;45930;53.514;55.904;2023-04-04T04:35:18;49040.84;;;-149.77;39.52
60055;BME280;45930;53.514;55.904;2023-04-04T04:36:19;49050.75;;;-149.77;39.28
60055;BME280;45930;53.514;55.904;2023-04-04T04:37:20;49076.50;;;-149.77;38.86
60055;BME280;45930;53.514;55.904;2023-04-04T04:38:21;49066.59;;;-149.77;38.40
60055;BME280;45930;53.514;55.904;2023-04-04T04:39:22;49036.91;;;-149.77;38.44
60055;BME280;45930;53.514;55.904;2023-04-04T04:40:22;49060.66;;;-149.77;38.49
60055;BME280;45930;53.514;55.904;2023-04-04T04:41:23;49064.63;;;-149.77;38.64
60055;BME280;45930;53.514;55.904;2023-04-04T04:42:24;49036.91;;;-149.77;38.64
60055;BME280;45930;53.514;55.904;2023-04-04T04:43:25;49040.84;;;-149.77;38.37
60055;BME280;45930;53.514;55.904;2023-04-04T04:44:27;49066.59;;;-149.77;38.15
60055;BME280;45930;53.514;55.904;2023-04-04T04:45:27;49021.06;;;-149.77;37.91
60055;BME280;45930;53.514;55.904;2023-04-04T04:46:28;49048.78;;;-149.77;38.09
60055;BME280;45930;53.514;55.904;2023-04-04T04:47:29;49048.78;;;-149.77;37.77
60055;BME280;45930;53.514;55.904;2023-04-04T04:48:31;49074.53;;;-149.77;37.49
60055;BME280;45930;53.514;55.904;2023-04-04T04:49:32;49044.81;;;-149.77;37.08
60055;BME280;45930;53.514;55.904;2023-04-04T04:50:33;49040.84;;;-149.77;37.05
60055;BME280;45930;53.514;55.904;2023-04-04T04:51:34;49027.00;;;-149.77;37.00
60055;BME280;45930;53.514;55.904;2023-04-04T04:52:36;49056.69;;;-149.77;37.00
60055;BME280;45930;53.514;55.904;2023-04-04T04:53:37;49025.00;;;-149.77;36.98
60055;BME280;45930;53.514;55.904;2023-04-04T04:54:38;49021.06;;;-149.77;37.22
60055;BME280;45930;53.514;55.904;2023-04-04T04:55:39;49056.69;;;-149.77;36.69
60055;BME280;45930;53.514;55.904;2023-04-04T04:56:42;49062.66;;;-149.77;36.54
60055;BME280;45930;53.514;55.904;2023-04-04T04:57:43;49052.75;;;-149.77;36.12
60055;BME280;45930;53.514;55.904;2023-04-04T04:58:46;49027.00;;;-149.77;36.26
60055;BME280;45930;53.514;55.904;2023-04-04T04:59:48;49046.78;;;-149.77;35.97
60055;BME280;45930;53.514;55.904;2023-04-04T05:00:48;49056.69;;;-149.77;35.55
60055;BME280;45930;53.514;55.904;2023-04-04T05:01:49;49056.69;;;-149.77;35.59
60055;BME280;45930;53.514;55.904;2023-04-04T05:02:53;49064.63;;;-149.77;35.06
60055;BME280;45930;53.514;55.904;2023-04-04T05:03:54;49064.63;;;-149.77;35.26
60055;BME280;45930;53.514;55.904;2023-04-04T05:04:55;49060.66;;;-149.77;35.39
60055;BME280;45930;53.514;55.904;2023-04-04T05:05:56;49070.56;;;-149.77;35.42
60055;BME280;45930;53.514;55.904;2023-04-04T05:06:57;49048.78;;;-149.77;35.20
60055;BME280;45930;53.514;55.904;2023-04-04T05:08:00;49040.84;;;-149.77;35.31
60055;BME280;45930;53.514;55.904;2023-04-04T05:09:02;49052.75;;;-149.77;35.31
60055;BME280;45930;53.514;55.904;2023-04-04T05:10:03;49052.75;;;-149.77;35.08
60055;BME280;45930;53.514;55.904;2023-04-04T05:11:03;49052.75;;;-149.77;34.90
60055;BME280;45930;53.514;55.904;2023-04-04T05:12:04;49070.56;;;-149.77;34.72
60055;BME280;45930;53.514;55.904;2023-04-04T05:13:05;49072.53;;;-149.77;34.90
60055;BME280;45930;53.514;55.904;2023-04-04T05:14:06;49066.59;;;-149.77;35.08
60055;BME280;45930;53.514;55.904;2023-04-04T05:15:07;49048.78;;;-149.77;34.81
60055;BME280;45930;53.514;55.904;2023-04-04T05:16:08;49060.66;;;-149.77;34.90
60055;BME280;45930;53.514;55.904;2023-04-04T05:17:12;49036.91;;;-149.77;35.01
60055;BME280;45930;53.514;55.904;2023-04-04T05:18:13;49048.78;;;-149.77;34.91
60055;BME280;45930;53.514;55.904;2023-04-04T05:19:14;49050.75;;;-149.77;34.29